sensor_id;sensor_type;location;lat;lon;timestamp;P1;durP1;ratioP1;P2;durP2;ratioP2
4268;SDS011;2148;48.554;7.834;2023-03-01T00:01:46;14.47;;;12.40;;
4268;SDS011;2148;48.554;7.834;2023-03-01T00:04:11;15.47;;;11.23;;
4268;SDS011;2148;48.554;7.834;2023-03-01T00:06:36;15.10;;;11.30;;
4268;SDS011;2148;48.554;7.834;2023-03-01T00:09:02;16.10;;;12.40;;
4268;SDS011;2148;48.554;7.834;2023-03-01T00:11:28;16.00;;;11.40;;
4268;SDS011;2148;48.554;7.834;2023-03-01T00:13:56;12.27;;;10.97;;
4268;SDS011;2148;48.554;7.834;2023-03-01T00:16:25;15.67;;;12.07;;
4268;SDS011;2148;48.554;7.834;2023-03-01T00:18:51;14.47;;;11.50;;
4268;SDS011;2148;48.554;7.834;2023-03-01T00:21:19;15.47;;;12.17;;
4268;SDS011;2148;48.554;7.834;2023-03-01T00:23:46;14.80;;;12.47;;
4268;SDS011;2148;48.554;7.834;2023-03-01T00:26:13;14.30;;;12.13;;
4268;SDS011;2148;48.554;7.834;2023-03-01T00:28:39;14.03;;;11.70;;
4268;SDS011;2148;48.554;7.834;2023-03-01T00:31:05;13.93;;;11.93;;
4268;SDS011;2148;48.554;7.834;2023-03-01T00:33:32;15.03;;;11.43;;
4268;SDS011;2148;48.554;7.834;2023-03-01T00:35:58;14.60;;;11.60;;
4268;SDS011;2148;48.554;7.834;2023-03-01T00:38:24;14.73;;;12.10;;
4268;SDS011;2148;48.554;7.834;2023-03-01T00:40:49;13.47;;;11.57;;
4268;SDS011;2148;48.554;7.834;2023-03-01T00:43:14;12.97;;;11.57;;
4268;SDS011;2148;48.554;7.834;2023-03-01T00:45:40;15.73;;;12.07;;
4268;SDS011;2148;48.554;7.834;2023-03-01T00:48:05;15.93;;;12.30;;
4268;SDS011;2148;48.554;7.834;2023-03-01T00:50:30;13.23;;;11.53;;
4268;SDS011;2148;48.554;7.834;2023-03-01T00:52:56;16.17;;;12.23;;
4268;SDS011;2148;48.554;7.834;2023-03-01T00:55:21;15.93;;;11.50;;
4268;SDS011;2148;48.554;7.834;2023-03-01T00:57:47;16.60;;;11.33;;
4268;SDS011;2148;48.554;7.834;2023-03-01T01:00:12;14.97;;;11.60;;
4268;SDS011;2148;48.554;7.834;2023-03-01T01:02:37;15.20;;;11.43;;
4268;SDS011;2148;48.554;7.834;2023-03-01T01:05:03;14.23;;;10.97;;
4268;SDS011;2148;48.554;7.834;2023-03-01T01:07:29;13.97;;;11.50;;
4268;SDS011;2148;48.554;7.834;2023-03-01T01:09:54;14.47;;;11.93;;
4268;SDS011;2148;48.554;7.834;2023-03-01T01:12:20;15.17;;;11.90;;
4268;SDS011;2148;48.554;7.834;2023-03-01T01:14:45;14.30;;;11.77;;
4268;SDS011;2148;48.554;7.834;2023-03-01T01:17:11;15.63;;;11.27;;
4268;SDS011;2148;48.554;7.834;2023-03-01T01:19:36;13.27;;;11.37;;
4268;SDS011;2148;48.554;7.834;2023-03-01T01:22:01;12.80;;;10.93;;
4268;SDS011;2148;48.554;7.834;2023-03-01T01:24:27;12.90;;;10.00;;
4268;SDS011;2148;48.554;7.834;2023-03-01T01:26:52;13.60;;;11.33;;
4268;SDS011;2148;48.554;7.834;2023-03-01T01:29:17;15.13;;;12.10;;
4268;SDS011;2148;48.554;7.834;2023-03-01T01:31:43;14.93;;;12.13;;
4268;SDS011;2148;48.554;7.834;2023-03-01T01:34:12;15.17;;;10.83;;
4268;SDS011;2148;48.554;7.834;2023-03-01T01:36:42;13.27;;;11.60;;
4268;SDS011;2148;48.554;7.834;2023-03-01T01:39:09;13.83;;;11.13;;
4268;SDS011;2148;48.554;7.834;2023-03-01T01:41:38;13.83;;;11.50;;
4268;SDS011;2148;48.554;7.834;2023-03-01T01:44:21;13.00;;;10.90;;
4268;SDS011;2148;48.554;7.834;2023-03-01T01:46:50;13.37;;;11.57;;
4268;SDS011;2148;48.554;7.834;2023-03-01T01:49:35;16.73;;;11.60;;
4268;SDS011;2148;48.554;7.834;2023-03-01T01:52:07;12.50;;;10.57;;
4268;SDS011;2148;48.554;7.834;2023-03-01T01:55:07;13.47;;;11.13;;
4268;SDS011;2148;48.554;7.834;2023-03-01T01:57:37;15.27;;;11.07;;
4268;SDS011;2148;48.554;7.834;2023-03-01T02:00:10;15.00;;;11.37;;
4268;SDS011;2148;48.554;7.834;2023-03-01T02:02:38;13.23;;;11.30;;
4268;SDS011;2148;48.554;7.834;2023-03-01T02:05:26;11.93;;;10.53;;
4268;SDS011;2148;48.554;7.834;2023-03-01T02:07:51;12.30;;;10.10;;
4268;SDS011;2148;48.554;7.834;2023-03-01T02:10:17;10.73;;;9.67;;
4268;SDS011;2148;48.554;7.834;2023-03-01T02:12:42;13.87;;;11.43;;
4268;SDS011;2148;48.554;7.834;2023-03-01T02:15:08;12.97;;;11.23;;
4268;SDS011;2148;48.554;7.834;2023-03-01T02:17:33;15.23;;;12.33;;
4268;SDS011;2148;48.554;7.834;2023-03-01T02:20:09;12.73;;;10.50;;
4268;SDS011;2148;48.554;7.834;2023-03-01T02:22:43;13.33;;;10.80;;
4268;SDS011;2148;48.554;7.834;2023-03-01T02:25:34;13.30;;;11.07;;
4268;SDS011;2148;48.554;7.834;2023-03-01T02:30:49;15.70;;;12.70;;
4268;SDS011;2148;48.554;7.834;2023-03-01T02:33:34;16.60;;;12.03;;
4268;SDS011;2148;48.554;7.834;2023-03-01T02:36:03;17.33;;;11.37;;
4268;SDS011;2148;48.554;7.834;2023-03-01T02:38:30;16.00;;;11.63;;
4268;SDS011;2148;48.554;7.834;2023-03-01T02:40:56;12.43;;;10.77;;
4268;SDS011;2148;48.554;7.834;2023-03-01T02:43:22;14.47;;;11.47;;
4268;SDS011;2148;48.554;7.834;2023-03-01T02:45:49;18.93;;;12.57;;
4268;SDS011;2148;48.554;7.834;2023-03-01T02:48:15;13.57;;;11.10;;
4268;SDS011;2148;48.554;7.834;2023-03-01T02:50:50;16.20;;;12.07;;
4268;SDS011;2148;48.554;7.834;2023-03-01T02:56:21;12.90;;;10.80;;
4268;SDS011;2148;48.554;7.834;2023-03-01T02:58:47;17.77;;;12.57;;
4268;SDS011;2148;48.554;7.834;2023-03-01T03:01:16;15.30;;;13.13;;
4268;SDS011;2148;48.554;7.834;2023-03-01T03:03:42;13.30;;;11.63;;
4268;SDS011;2148;48.554;7.834;2023-03-01T03:06:08;16.80;;;12.20;;
4268;SDS011;2148;48.554;7.834;2023-03-01T03:08:34;14.97;;;12.00;;
4268;SDS011;2148;48.554;7.834;2023-03-01T03:10:59;15.67;;;12.13;;
4268;SDS011;2148;48.554;7.834;2023-03-01T03:13:24;13.87;;;12.17;;
4268;SDS011;2148;48.554;7.834;2023-03-01T03:15:53;16.23;;;11.80;;
4268;SDS011;2148;48.554;7.834;2023-03-01T03:18:19;15.13;;;11.17;;
4268;SDS011;2148;48.554;7.834;2023-03-01T03:20:45;13.47;;;11.47;;
4268;SDS011;2148;48.554;7.834;2023-03-01T03:23:10;13.73;;;10.93;;
4268;SDS011;2148;48.554;7.834;2023-03-01T03:25:36;11.07;;;9.80;;
4268;SDS011;2148;48.554;7.834;2023-03-01T03:28:03;13.70;;;11.63;;
4268;SDS011;2148;48.554;7.834;2023-03-01T03:30:34;13.47;;;11.40;;
4268;SDS011;2148;48.554;7.834;2023-03-01T03:32:59;13.63;;;11.53;;
4268;SDS011;2148;48.554;7.834;2023-03-01T03:35:26;15.27;;;12.60;;
4268;SDS011;2148;48.554;7.834;2023-03-01T03:37:55;14.37;;;12.03;;
4268;SDS011;2148;48.554;7.834;2023-03-01T03:40:27;14.87;;;11.47;;
4268;SDS011;2148;48.554;7.834;2023-03-01T03:43:06;16.33;;;11.60;;
4268;SDS011;2148;48.554;7.834;2023-03-01T03:45:34;16.00;;;11.97;;
4268;SDS011;2148;48.554;7.834;2023-03-01T03:48:00;14.30;;;10.60;;
4268;SDS011;2148;48.554;7.834;2023-03-01T03:50:27;12.47;;;11.13;;
4268;SDS011;2148;48.554;7.834;2023-03-01T03:52:53;14.90;;;11.93;;
4268;SDS011;2148;48.554;7.834;2023-03-01T03:55:18;14.83;;;11.20;;
4268;SDS011;2148;48.554;7.834;2023-03-01T03:57:44;14.10;;;11.93;;
4268;SDS011;2148;48.554;7.834;2023-03-01T04:00:16;11.73;;;10.47;;
4268;SDS011;2148;48.554;7.834;2023-03-01T04:02:45;14.30;;;10.90;;
4268;SDS011;2148;48.554;7.834;2023-03-01T04:05:12;16.33;;;11.87;;
4268;SDS011;2148;48.554;7.834;2023-03-01T04:07:39;13.60;;;11.07;;
4268;SDS011;2148;48.554;7.834;2023-03-01T04:10:05;14.37;;;11.23;;
4268;SDS011;2148;48.554;7.834;2023-03-01T04:12:34;20.97;;;14.53;;
4268;SDS011;2148;48.554;7.834;2023-03-01T04:15:00;22.17;;;15.33;;
4268;SDS011;2148;48.554;7.834;2023-03-01T04:17:25;23.57;;;15.10;;
4268;SDS011;2148;48.554;7.834;2023-03-01T04:19:51;16.27;;;11.83;;
4268;SDS011;2148;48.554;7.834;2023-03-01T04:22:16;16.33;;;12.10;;
4268;SDS011;2148;48.554;7.834;2023-03-01T04:24:43;16.50;;;12.83;;
4268;SDS011;2148;48.554;7.834;2023-03-01T04:27:09;18.47;;;13.57;;
4268;SDS011;2148;48.554;7.834;2023-03-01T04:29:34;40.53;;;21.73;;
4268;SDS011;2148;48.554;7.834;2023-03-01T04:31:59;30.60;;;18.40;;
4268;SDS011;2148;48.554;7.834;2023-03-01T04:34:24;23.10;;;15.03;;
4268;SDS011;2148;48.554;7.834;2023-03-01T04:36:51;21.50;;;15.17;;
4268;SDS011;2148;48.554;7.834;2023-03-01T04:39:17;23.07;;;16.07;;
4268;SDS011;2148;48.554;7.834;2023-03-01T04:41:42;36.27;;;19.73;;
4268;SDS011;2148;48.554;7.834;2023-03-01T04:44:10;29.20;;;16.97;;
4268;SDS011;2148;48.554;7.834;2023-03-01T04:46:36;20.63;;;13.63;;
4268;SDS011;2148;48.554;7.834;2023-03-01T04:49:02;22.40;;;13.93;;
4268;SDS011;2148;48.554;7.834;2023-03-01T04:51:27;15.43;;;12.37;;
4268;SDS011;2148;48.554;7.834;2023-03-01T04:53:53;16.80;;;13.03;;
4268;SDS011;2148;48.554;7.834;2023-03-01T04:56:19;14.93;;;11.97;;
4268;SDS011;2148;48.554;7.834;2023-03-01T04:58:44;15.20;;;12.17;;
4268;SDS011;2148;48.554;7.834;2023-03-01T05:01:11;13.10;;;11.53;;
4268;SDS011;2148;48.554;7.834;2023-03-01T05:03:41;15.80;;;13.17;;
4268;SDS011;2148;48.554;7.834;2023-03-01T05:06:07;16.23;;;12.47;;
4268;SDS011;2148;48.554;7.834;2023-03-01T05:08:33;18.80;;;13.07;;
4268;SDS011;2148;48.554;7.834;2023-03-01T05:10:59;15.67;;;12.23;;
4268;SDS011;2148;48.554;7.834;2023-03-01T05:13:24;18.00;;;14.17;;
4268;SDS011;2148;48.554;7.834;2023-03-01T05:16:00;18.27;;;14.17;;
4268;SDS011;2148;48.554;7.834;2023-03-01T05:18:26;17.67;;;13.37;;
4268;SDS011;2148;48.554;7.834;2023-03-01T05:20:53;18.33;;;13.63;;
4268;SDS011;2148;48.554;7.834;2023-03-01T05:23:21;17.50;;;13.80;;
4268;SDS011;2148;48.554;7.834;2023-03-01T05:25:47;15.97;;;12.83;;
4268;SDS011;2148;48.554;7.834;2023-03-01T05:28:12;17.37;;;12.57;;
4268;SDS011;2148;48.554;7.834;2023-03-01T05:30:38;16.63;;;13.30;;
4268;SDS011;2148;48.554;7.834;2023-03-01T05:33:06;15.83;;;13.10;;
4268;SDS011;2148;48.554;7.834;2023-03-01T05:35:38;14.37;;;12.73;;
4268;SDS011;2148;48.554;7.834;2023-03-01T05:38:05;16.30;;;12.50;;
4268;SDS011;2148;48.554;7.834;2023-03-01T05:40:32;18.27;;;13.83;;
4268;SDS011;2148;48.554;7.834;2023-03-01T05:42:58;20.03;;;13.57;;
4268;SDS011;2148;48.554;7.834;2023-03-01T05:45:24;16.33;;;12.50;;
4268;SDS011;2148;48.554;7.834;2023-03-01T05:47:50;15.80;;;11.97;;
4268;SDS011;2148;48.554;7.834;2023-03-01T05:50:17;16.00;;;12.57;;
4268;SDS011;2148;48.554;7.834;2023-03-01T05:52:47;17.03;;;14.80;;
4268;SDS011;2148;48.554;7.834;2023-03-01T05:55:18;18.47;;;14.73;;
4268;SDS011;2148;48.554;7.834;2023-03-01T05:57:44;16.80;;;13.23;;
4268;SDS011;2148;48.554;7.834;2023-03-01T06:00:10;17.57;;;14.33;;
4268;SDS011;2148;48.554;7.834;2023-03-01T06:02:36;15.83;;;12.77;;
4268;SDS011;2148;48.554;7.834;2023-03-01T06:05:02;15.33;;;13.63;;
4268;SDS011;2148;48.554;7.834;2023-03-01T06:07:29;16.87;;;13.03;;
4268;SDS011;2148;48.554;7.834;2023-03-01T06:09:54;15.50;;;13.17;;
4268;SDS011;2148;48.554;7.834;2023-03-01T06:12:19;18.30;;;13.87;;
4268;SDS011;2148;48.554;7.834;2023-03-01T06:14:45;19.20;;;14.97;;
4268;SDS011;2148;48.554;7.834;2023-03-01T06:17:12;17.50;;;13.47;;
4268;SDS011;2148;48.554;7.834;2023-03-01T06:19:37;17.20;;;14.17;;
4268;SDS011;2148;48.554;7.834;2023-03-01T06:22:02;17.27;;;13.70;;
4268;SDS011;2148;48.554;7.834;2023-03-01T06:24:27;14.50;;;12.57;;
4268;SDS011;2148;48.554;7.834;2023-03-01T06:26:53;16.73;;;13.03;;
4268;SDS011;2148;48.554;7.834;2023-03-01T06:29:19;17.53;;;13.83;;
4268;SDS011;2148;48.554;7.834;2023-03-01T06:31:44;19.53;;;15.23;;
4268;SDS011;2148;48.554;7.834;2023-03-01T06:34:10;15.40;;;12.47;;
4268;SDS011;2148;48.554;7.834;2023-03-01T06:36:38;15.17;;;11.83;;
4268;SDS011;2148;48.554;7.834;2023-03-01T06:39:04;17.13;;;13.90;;
4268;SDS011;2148;48.554;7.834;2023-03-01T06:41:30;19.40;;;14.50;;
4268;SDS011;2148;48.554;7.834;2023-03-01T06:43:55;17.27;;;13.67;;
4268;SDS011;2148;48.554;7.834;2023-03-01T06:46:21;15.73;;;13.30;;
4268;SDS011;2148;48.554;7.834;2023-03-01T06:48:46;18.10;;;13.70;;
4268;SDS011;2148;48.554;7.834;2023-03-01T06:51:11;18.07;;;13.63;;
4268;SDS011;2148;48.554;7.834;2023-03-01T06:53:37;17.67;;;14.33;;
4268;SDS011;2148;48.554;7.834;2023-03-01T06:56:02;18.37;;;14.03;;
4268;SDS011;2148;48.554;7.834;2023-03-01T06:58:27;16.83;;;14.07;;
4268;SDS011;2148;48.554;7.834;2023-03-01T07:00:52;16.47;;;13.63;;
4268;SDS011;2148;48.554;7.834;2023-03-01T07:03:18;15.80;;;14.00;;
4268;SDS011;2148;48.554;7.834;2023-03-01T07:05:43;20.17;;;15.20;;
4268;SDS011;2148;48.554;7.834;2023-03-01T07:08:09;20.27;;;14.90;;
4268;SDS011;2148;48.554;7.834;2023-03-01T07:10:35;17.50;;;13.33;;
4268;SDS011;2148;48.554;7.834;2023-03-01T07:13:00;17.63;;;13.90;;
4268;SDS011;2148;48.554;7.834;2023-03-01T07:15:25;16.83;;;14.17;;
4268;SDS011;2148;48.554;7.834;2023-03-01T07:17:51;18.43;;;13.93;;
4268;SDS011;2148;48.554;7.834;2023-03-01T07:20:19;19.10;;;15.47;;
4268;SDS011;2148;48.554;7.834;2023-03-01T07:22:49;18.13;;;14.30;;
4268;SDS011;2148;48.554;7.834;2023-03-01T07:25:15;19.50;;;15.27;;
4268;SDS011;2148;48.554;7.834;2023-03-01T07:27:40;18.50;;;14.53;;
4268;SDS011;2148;48.554;7.834;2023-03-01T07:30:05;20.13;;;14.67;;
4268;SDS011;2148;48.554;7.834;2023-03-01T07:32:31;21.17;;;17.07;;
4268;SDS011;2148;48.554;7.834;2023-03-01T07:34:56;16.77;;;14.80;;
4268;SDS011;2148;48.554;7.834;2023-03-01T07:37:22;18.63;;;14.30;;
4268;SDS011;2148;48.554;7.834;2023-03-01T07:39:47;19.47;;;15.40;;
4268;SDS011;2148;48.554;7.834;2023-03-01T07:42:12;18.43;;;13.67;;
4268;SDS011;2148;48.554;7.834;2023-03-01T07:44:37;20.73;;;15.90;;
4268;SDS011;2148;48.554;7.834;2023-03-01T07:47:03;17.73;;;14.30;;
4268;SDS011;2148;48.554;7.834;2023-03-01T07:49:28;21.50;;;15.53;;
4268;SDS011;2148;48.554;7.834;2023-03-01T07:51:54;20.87;;;15.80;;
4268;SDS011;2148;48.554;7.834;2023-03-01T07:54:19;21.80;;;17.17;;
4268;SDS011;2148;48.554;7.834;2023-03-01T07:56:44;19.97;;;14.77;;
4268;SDS011;2148;48.554;7.834;2023-03-01T07:59:09;21.33;;;15.13;;
4268;SDS011;2148;48.554;7.834;2023-03-01T08:01:35;23.87;;;15.40;;
4268;SDS011;2148;48.554;7.834;2023-03-01T08:04:00;22.87;;;15.37;;
4268;SDS011;2148;48.554;7.834;2023-03-01T08:06:26;19.10;;;14.80;;
4268;SDS011;2148;48.554;7.834;2023-03-01T08:08:52;17.47;;;14.10;;
4268;SDS011;2148;48.554;7.834;2023-03-01T08:11:17;21.67;;;16.67;;
4268;SDS011;2148;48.554;7.834;2023-03-01T08:13:42;22.37;;;16.63;;
4268;SDS011;2148;48.554;7.834;2023-03-01T08:16:11;20.30;;;16.90;;
4268;SDS011;2148;48.554;7.834;2023-03-01T08:18:38;24.67;;;16.40;;
4268;SDS011;2148;48.554;7.834;2023-03-01T08:21:04;23.93;;;18.87;;
4268;SDS011;2148;48.554;7.834;2023-03-01T08:23:30;22.60;;;16.80;;
4268;SDS011;2148;48.554;7.834;2023-03-01T08:26:02;22.87;;;17.17;;
4268;SDS011;2148;48.554;7.834;2023-03-01T08:28:28;21.67;;;16.23;;
4268;SDS011;2148;48.554;7.834;2023-03-01T08:30:54;24.00;;;17.70;;
4268;SDS011;2148;48.554;7.834;2023-03-01T08:33:19;22.13;;;17.83;;
4268;SDS011;2148;48.554;7.834;2023-03-01T08:35:44;19.17;;;16.87;;
4268;SDS011;2148;48.554;7.834;2023-03-01T08:38:09;23.97;;;17.93;;
4268;SDS011;2148;48.554;7.834;2023-03-01T08:40:35;23.53;;;17.50;;
4268;SDS011;2148;48.554;7.834;2023-03-01T08:43:00;21.27;;;16.63;;
4268;SDS011;2148;48.554;7.834;2023-03-01T08:45:25;23.10;;;17.50;;
4268;SDS011;2148;48.554;7.834;2023-03-01T08:47:52;21.97;;;16.83;;
4268;SDS011;2148;48.554;7.834;2023-03-01T08:50:18;21.43;;;16.43;;
4268;SDS011;2148;48.554;7.834;2023-03-01T08:52:43;19.97;;;15.20;;
4268;SDS011;2148;48.554;7.834;2023-03-01T08:55:08;23.33;;;16.77;;
4268;SDS011;2148;48.554;7.834;2023-03-01T08:57:34;21.40;;;15.67;;
4268;SDS011;2148;48.554;7.834;2023-03-01T08:59:59;21.57;;;16.33;;
4268;SDS011;2148;48.554;7.834;2023-03-01T09:02:24;23.53;;;16.87;;
4268;SDS011;2148;48.554;7.834;2023-03-01T09:04:50;21.97;;;17.00;;
4268;SDS011;2148;48.554;7.834;2023-03-01T09:07:15;20.77;;;15.47;;
4268;SDS011;2148;48.554;7.834;2023-03-01T09:09:40;20.97;;;16.20;;
4268;SDS011;2148;48.554;7.834;2023-03-01T09:12:05;19.87;;;16.73;;
4268;SDS011;2148;48.554;7.834;2023-03-01T09:14:31;20.80;;;17.50;;
4268;SDS011;2148;48.554;7.834;2023-03-01T09:16:56;22.93;;;17.93;;
4268;SDS011;2148;48.554;7.834;2023-03-01T09:19:21;22.87;;;17.73;;
4268;SDS011;2148;48.554;7.834;2023-03-01T09:21:46;25.50;;;19.73;;
4268;SDS011;2148;48.554;7.834;2023-03-01T09:24:20;20.77;;;15.93;;
4268;SDS011;2148;48.554;7.834;2023-03-01T09:26:46;22.23;;;17.60;;
4268;SDS011;2148;48.554;7.834;2023-03-01T09:29:11;19.37;;;14.90;;
4268;SDS011;2148;48.554;7.834;2023-03-01T09:31:38;19.77;;;16.27;;
4268;SDS011;2148;48.554;7.834;2023-03-01T09:34:03;22.63;;;17.57;;
4268;SDS011;2148;48.554;7.834;2023-03-01T09:36:29;23.53;;;17.80;;
4268;SDS011;2148;48.554;7.834;2023-03-01T09:38:55;22.17;;;17.77;;
4268;SDS011;2148;48.554;7.834;2023-03-01T09:44:01;21.30;;;17.63;;
4268;SDS011;2148;48.554;7.834;2023-03-01T09:46:29;22.67;;;15.87;;
4268;SDS011;2148;48.554;7.834;2023-03-01T09:48:58;21.17;;;16.53;;
4268;SDS011;2148;48.554;7.834;2023-03-01T09:51:29;23.47;;;19.43;;
4268;SDS011;2148;48.554;7.834;2023-03-01T09:53:56;26.90;;;16.67;;
4268;SDS011;2148;48.554;7.834;2023-03-01T10:01:30;22.83;;;17.50;;
4268;SDS011;2148;48.554;7.834;2023-03-01T10:06:33;22.57;;;16.60;;
4268;SDS011;2148;48.554;7.834;2023-03-01T10:09:05;24.43;;;16.53;;
4268;SDS011;2148;48.554;7.834;2023-03-01T10:11:35;21.70;;;17.57;;
4268;SDS011;2148;48.554;7.834;2023-03-01T10:14:09;22.33;;;15.43;;
4268;SDS011;2148;48.554;7.834;2023-03-01T10:16:57;25.50;;;19.73;;
4268;SDS011;2148;48.554;7.834;2023-03-01T10:21:57;23.17;;;16.77;;
4268;SDS011;2148;48.554;7.834;2023-03-01T10:24:28;22.00;;;18.43;;
4268;SDS011;2148;48.554;7.834;2023-03-01T10:26:58;21.90;;;17.63;;
4268;SDS011;2148;48.554;7.834;2023-03-01T10:29:44;23.17;;;19.57;;
4268;SDS011;2148;48.554;7.834;2023-03-01T10:32:13;23.67;;;19.90;;
4268;SDS011;2148;48.554;7.834;2023-03-01T10:34:39;19.73;;;14.97;;
4268;SDS011;2148;48.554;7.834;2023-03-01T10:37:14;23.37;;;20.63;;
4268;SDS011;2148;48.554;7.834;2023-03-01T10:42:38;22.70;;;17.87;;
4268;SDS011;2148;48.554;7.834;2023-03-01T10:47:40;25.40;;;20.83;;
4268;SDS011;2148;48.554;7.834;2023-03-01T10:50:05;22.27;;;18.30;;
4268;SDS011;2148;48.554;7.834;2023-03-01T10:52:42;23.60;;;18.83;;
4268;SDS011;2148;48.554;7.834;2023-03-01T10:55:38;22.97;;;18.07;;
4268;SDS011;2148;48.554;7.834;2023-03-01T10:58:18;23.27;;;17.47;;
4268;SDS011;2148;48.554;7.834;2023-03-01T11:00:49;21.73;;;18.23;;
4268;SDS011;2148;48.554;7.834;2023-03-01T11:03:38;21.27;;;17.30;;
4268;SDS011;2148;48.554;7.834;2023-03-01T11:06:24;24.80;;;16.53;;
4268;SDS011;2148;48.554;7.834;2023-03-01T11:08:51;18.67;;;13.77;;
4268;SDS011;2148;48.554;7.834;2023-03-01T11:11:26;23.77;;;19.20;;
4268;SDS011;2148;48.554;7.834;2023-03-01T11:13:57;21.40;;;19.10;;
4268;SDS011;2148;48.554;7.834;2023-03-01T11:16:35;22.07;;;18.10;;
4268;SDS011;2148;48.554;7.834;2023-03-01T11:21:33;21.00;;;17.47;;
4268;SDS011;2148;48.554;7.834;2023-03-01T11:24:01;24.00;;;20.17;;
4268;SDS011;2148;48.554;7.834;2023-03-01T11:26:29;19.23;;;15.93;;
4268;SDS011;2148;48.554;7.834;2023-03-01T11:28:57;21.47;;;17.33;;
4268;SDS011;2148;48.554;7.834;2023-03-01T11:31:25;19.90;;;15.70;;
4268;SDS011;2148;48.554;7.834;2023-03-01T11:33:56;22.43;;;16.30;;
4268;SDS011;2148;48.554;7.834;2023-03-01T11:36:28;23.60;;;18.60;;
4268;SDS011;2148;48.554;7.834;2023-03-01T11:38:56;23.90;;;19.50;;
4268;SDS011;2148;48.554;7.834;2023-03-01T11:41:26;20.07;;;15.73;;
4268;SDS011;2148;48.554;7.834;2023-03-01T11:43:55;23.70;;;20.77;;
4268;SDS011;2148;48.554;7.834;2023-03-01T11:53:57;23.00;;;17.43;;
4268;SDS011;2148;48.554;7.834;2023-03-01T11:59:16;37.40;;;25.07;;
4268;SDS011;2148;48.554;7.834;2023-03-01T12:04:51;26.17;;;20.57;;
4268;SDS011;2148;48.554;7.834;2023-03-01T12:07:31;23.43;;;18.97;;
4268;SDS011;2148;48.554;7.834;2023-03-01T12:10:03;24.27;;;17.63;;
4268;SDS011;2148;48.554;7.834;2023-03-01T12:18:32;24.53;;;15.90;;
4268;SDS011;2148;48.554;7.834;2023-03-01T12:21:19;20.97;;;15.33;;
4268;SDS011;2148;48.554;7.834;2023-03-01T12:24:51;23.23;;;19.67;;
4268;SDS011;2148;48.554;7.834;2023-03-01T12:30:09;26.00;;;19.97;;
4268;SDS011;2148;48.554;7.834;2023-03-01T12:38:25;23.40;;;17.57;;
4268;SDS011;2148;48.554;7.834;2023-03-01T12:43:53;24.50;;;17.47;;
4268;SDS011;2148;48.554;7.834;2023-03-01T12:49:31;24.73;;;19.83;;
4268;SDS011;2148;48.554;7.834;2023-03-01T12:54:40;18.70;;;16.77;;
4268;SDS011;2148;48.554;7.834;2023-03-01T12:57:09;21.97;;;16.57;;
4268;SDS011;2148;48.554;7.834;2023-03-01T13:02:33;21.03;;;18.57;;
4268;SDS011;2148;48.554;7.834;2023-03-01T13:07:50;21.07;;;17.70;;
4268;SDS011;2148;48.554;7.834;2023-03-01T13:17:52;21.60;;;17.83;;
4268;SDS011;2148;48.554;7.834;2023-03-01T13:20:19;22.73;;;17.93;;
4268;SDS011;2148;48.554;7.834;2023-03-01T13:22:46;23.20;;;17.80;;
4268;SDS011;2148;48.554;7.834;2023-03-01T13:25:19;22.90;;;19.13;;
4268;SDS011;2148;48.554;7.834;2023-03-01T13:27:45;23.07;;;18.60;;
4268;SDS011;2148;48.554;7.834;2023-03-01T13:30:37;19.97;;;16.87;;
4268;SDS011;2148;48.554;7.834;2023-03-01T13:35:48;22.23;;;19.83;;
4268;SDS011;2148;48.554;7.834;2023-03-01T13:38:36;25.20;;;21.87;;
4268;SDS011;2148;48.554;7.834;2023-03-01T13:41:01;21.97;;;19.17;;
4268;SDS011;2148;48.554;7.834;2023-03-01T13:43:31;22.10;;;17.00;;
4268;SDS011;2148;48.554;7.834;2023-03-01T13:45:58;20.13;;;16.70;;
4268;SDS011;2148;48.554;7.834;2023-03-01T13:48:25;22.60;;;19.43;;
4268;SDS011;2148;48.554;7.834;2023-03-01T13:50:53;18.63;;;14.13;;
4268;SDS011;2148;48.554;7.834;2023-03-01T13:53:24;22.87;;;18.57;;
4268;SDS011;2148;48.554;7.834;2023-03-01T13:55:52;21.60;;;16.13;;
4268;SDS011;2148;48.554;7.834;2023-03-01T13:58:22;23.30;;;15.90;;
4268;SDS011;2148;48.554;7.834;2023-03-01T14:01:35;18.80;;;15.03;;
4268;SDS011;2148;48.554;7.834;2023-03-01T14:03:54;22.50;;;18.83;;
4268;SDS011;2148;48.554;7.834;2023-03-01T14:06:21;23.13;;;19.73;;
4268;SDS011;2148;48.554;7.834;2023-03-01T14:09:02;24.20;;;18.17;;
4268;SDS011;2148;48.554;7.834;2023-03-01T14:11:49;20.03;;;17.23;;
4268;SDS011;2148;48.554;7.834;2023-03-01T14:14:21;22.40;;;17.87;;
4268;SDS011;2148;48.554;7.834;2023-03-01T14:20:30;21.20;;;18.37;;
4268;SDS011;2148;48.554;7.834;2023-03-01T14:22:58;22.73;;;18.80;;
4268;SDS011;2148;48.554;7.834;2023-03-01T14:30:43;21.83;;;17.93;;
4268;SDS011;2148;48.554;7.834;2023-03-01T14:33:20;21.87;;;19.57;;
4268;SDS011;2148;48.554;7.834;2023-03-01T14:38:35;24.00;;;17.60;;
4268;SDS011;2148;48.554;7.834;2023-03-01T14:41:20;24.70;;;19.60;;
4268;SDS011;2148;48.554;7.834;2023-03-01T14:43:53;19.67;;;15.80;;
4268;SDS011;2148;48.554;7.834;2023-03-01T14:46:24;23.00;;;18.40;;
4268;SDS011;2148;48.554;7.834;2023-03-01T14:48:54;23.70;;;19.03;;
4268;SDS011;2148;48.554;7.834;2023-03-01T14:51:21;22.03;;;18.13;;
4268;SDS011;2148;48.554;7.834;2023-03-01T14:53:47;20.33;;;16.53;;
4268;SDS011;2148;48.554;7.834;2023-03-01T14:56:13;23.03;;;19.80;;
4268;SDS011;2148;48.554;7.834;2023-03-01T14:58:39;22.73;;;19.53;;
4268;SDS011;2148;48.554;7.834;2023-03-01T15:01:04;21.17;;;17.33;;
4268;SDS011;2148;48.554;7.834;2023-03-01T15:03:37;23.13;;;18.10;;
4268;SDS011;2148;48.554;7.834;2023-03-01T15:06:06;23.20;;;18.07;;
4268;SDS011;2148;48.554;7.834;2023-03-01T15:08:32;20.53;;;16.40;;
4268;SDS011;2148;48.554;7.834;2023-03-01T15:11:03;24.73;;;20.63;;
4268;SDS011;2148;48.554;7.834;2023-03-01T15:13:38;23.60;;;20.87;;
4268;SDS011;2148;48.554;7.834;2023-03-01T15:16:05;18.93;;;15.63;;
4268;SDS011;2148;48.554;7.834;2023-03-01T15:18:32;26.10;;;21.20;;
4268;SDS011;2148;48.554;7.834;2023-03-01T15:21:20;23.87;;;19.93;;
4268;SDS011;2148;48.554;7.834;2023-03-01T15:23:48;24.20;;;18.63;;
4268;SDS011;2148;48.554;7.834;2023-03-01T15:26:25;19.63;;;16.97;;
4268;SDS011;2148;48.554;7.834;2023-03-01T15:28:54;21.30;;;14.80;;
4268;SDS011;2148;48.554;7.834;2023-03-01T15:31:27;20.33;;;15.93;;
4268;SDS011;2148;48.554;7.834;2023-03-01T15:36:48;23.00;;;17.20;;
4268;SDS011;2148;48.554;7.834;2023-03-01T15:39:32;21.87;;;17.13;;
4268;SDS011;2148;48.554;7.834;2023-03-01T15:42:11;23.10;;;19.17;;
4268;SDS011;2148;48.554;7.834;2023-03-01T15:44:37;21.47;;;16.33;;
4268;SDS011;2148;48.554;7.834;2023-03-01T15:47:23;21.90;;;19.60;;
4268;SDS011;2148;48.554;7.834;2023-03-01T15:49:51;22.97;;;19.67;;
4268;SDS011;2148;48.554;7.834;2023-03-01T15:52:21;21.63;;;18.33;;
4268;SDS011;2148;48.554;7.834;2023-03-01T15:54:54;22.73;;;18.73;;
4268;SDS011;2148;48.554;7.834;2023-03-01T15:57:20;18.77;;;14.90;;
4268;SDS011;2148;48.554;7.834;2023-03-01T15:59:46;21.70;;;18.43;;
4268;SDS011;2148;48.554;7.834;2023-03-01T16:02:11;22.03;;;18.63;;
4268;SDS011;2148;48.554;7.834;2023-03-01T16:04:40;22.27;;;17.43;;
4268;SDS011;2148;48.554;7.834;2023-03-01T16:07:05;18.87;;;14.67;;
4268;SDS011;2148;48.554;7.834;2023-03-01T16:09:31;22.97;;;20.40;;
4268;SDS011;2148;48.554;7.834;2023-03-01T16:11:56;26.63;;;18.10;;
4268;SDS011;2148;48.554;7.834;2023-03-01T16:14:21;20.87;;;15.10;;
4268;SDS011;2148;48.554;7.834;2023-03-01T16:16:47;20.93;;;17.90;;
4268;SDS011;2148;48.554;7.834;2023-03-01T16:19:13;20.30;;;15.77;;
4268;SDS011;2148;48.554;7.834;2023-03-01T16:21:38;22.63;;;19.67;;
4268;SDS011;2148;48.554;7.834;2023-03-01T16:24:04;23.50;;;19.40;;
4268;SDS011;2148;48.554;7.834;2023-03-01T16:26:29;24.37;;;18.67;;
4268;SDS011;2148;48.554;7.834;2023-03-01T16:28:55;20.83;;;17.77;;
4268;SDS011;2148;48.554;7.834;2023-03-01T16:31:21;20.70;;;17.80;;